Main page
METAR-TAF:

METAR-TAF

Airports :

Tiree, Scotland

Tiree Airport

latitude: 56-30N, longitude: 006-53W, elevation: 12 m

Current weather observation

The report was made 38 minutes ago, at 01:50 UTC
Wind 14 kt from the South/Southwest, varying between South/Southeast and Southwest
Temperature 9°C
Humidity 100%
Pressure 1014 hPa
Visibility: 3600 m
mist

METAR: EGPU 170150Z AUTO 20014KT 160V220 3600 BR BKN004/// BKN016/// 09/09 Q1014

Time: 02:28 (02:28 UTC)

Forecast

The report was made 12 hours and 3 minutes ago, at 14:25 UTC
Forecast valid from 16 at 15 UTC to 16 at 19 UTC
Wind 9 kt from the West/Northwest
Visibility 10 km or more
Scattered clouds at a height of 2500 ft
Probability 30% :
Temporary
from 16 at 15 UTC to 16 at 16 UTC
Visibility: 6000 m
light rain showers

TAF: EGPU 161425Z 1615/1619 29009KT 9999 SCT025 PROB30 TEMPO 1615/1616 6000 -SHRA

Weather observations and forecasts of more than 4000 airports (METAR and TAF reports).

The available stations are represented by yellow and red dots on the map.

Hover mouse over dot to see the name of the station.

Then click to see weather observations and forecasts.

To change the map : click on the green buttons with a black cross to zoom in, on the green button with a dash to zoom out, or on the green arrows for adjacent maps.


METAR-TAF: